Time;durP1;ratioP1;P1;durP2;ratioP2;P2;SDS_P1;SDS_P2;PMS_P1;PMS_P2;Temp;Humidity;BMP_temperature;BMP_pressure;BME280_temperature;BME280_humidity;BME280_pressure;Samples;Min_cycle;Max_cycle;Signal;HPM_P1;HPM_P2
2023/06/07 00:17:52;;;;;;;11.80;4.18;;;11.20;99.90;;;;;;5113736;28;20039;-59
2023/06/07 00:20:18;;;;;;;13.65;3.50;;;11.20;99.90;;;;;;5112980;28;20047;-59
2023/06/07 00:22:44;;;;;;;13.88;4.20;;;11.20;99.90;;;;;;5112097;28;20035;-59
2023/06/07 00:25:10;;;;;;;13.68;4.43;;;11.20;99.90;;;;;;5096555;28;20067;-59
2023/06/07 00:27:36;;;;;;;10.10;4.10;;;11.20;99.90;;;;;;5092314;28;20043;-59
2023/06/07 00:30:04;;;;;;;11.38;4.88;;;11.20;99.90;;;;;;5113558;28;20043;-59
2023/06/07 00:32:31;;;;;;;12.52;4.13;;;11.20;99.90;;;;;;5112577;27;20411;-59
2023/06/07 00:34:57;;;;;;;11.70;4.20;;;11.10;99.90;;;;;;5111986;28;20499;-59
2023/06/07 00:37:23;;;;;;;13.68;5.68;;;11.10;99.90;;;;;;5111612;28;20503;-59
2023/06/07 00:39:48;;;;;;;16.20;5.32;;;11.10;99.90;;;;;;5110636;28;20055;-59
2023/06/07 00:42:14;;;;;;;12.07;4.60;;;11.10;99.90;;;;;;5093594;28;20035;-59
2023/06/07 00:44:40;;;;;;;10.48;4.43;;;11.10;99.90;;;;;;5092599;28;20040;-59
2023/06/07 00:47:06;;;;;;;12.85;4.47;;;11.10;99.90;;;;;;5092167;28;20484;-59
2023/06/07 00:49:32;;;;;;;13.13;5.43;;;11.10;99.90;;;;;;5091119;28;20477;-59
2023/06/07 00:51:59;;;;;;;14.65;5.03;;;11.10;99.90;;;;;;5092391;28;20044;-59
2023/06/07 00:54:25;;;;;;;19.88;5.97;;;11.10;99.90;;;;;;5091620;28;20040;-59
2023/06/07 00:56:51;;;;;;;14.07;5.32;;;11.00;99.90;;;;;;5093864;28;20051;-59
2023/06/07 00:59:18;;;;;;;10.40;4.57;;;11.00;99.90;;;;;;5112555;28;20480;-59
2023/06/07 01:01:46;;;;;;;12.02;4.72;;;11.00;99.90;;;;;;5110879;28;20079;-59
2023/06/07 01:04:12;;;;;;;11.55;4.47;;;11.00;99.90;;;;;;5111411;28;20488;-59
2023/06/07 01:06:38;;;;;;;12.32;5.18;;;11.00;99.90;;;;;;5111130;28;20050;-59
2023/06/07 01:09:06;;;;;;;12.20;5.15;;;11.10;99.90;;;;;;5111850;28;20070;-59
2023/06/07 01:11:34;;;;;;;15.45;4.72;;;11.10;99.90;;;;;;5112512;28;20047;-59
2023/06/07 01:14:00;;;;;;;18.33;4.78;;;11.10;99.90;;;;;;5094015;28;20042;-59
2023/06/07 01:16:26;;;;;;;13.27;5.00;;;11.20;99.90;;;;;;5112038;28;20118;-59
2023/06/07 01:18:53;;;;;;;15.98;5.20;;;11.20;99.90;;;;;;5111390;28;20071;-59
2023/06/07 01:21:19;;;;;;;10.93;5.18;;;11.20;99.90;;;;;;5111634;28;20047;-59
2023/06/07 01:23:45;;;;;;;16.75;4.60;;;11.30;99.90;;;;;;5112371;28;20044;-59
2023/06/07 01:26:12;;;;;;;15.38;4.57;;;11.30;99.90;;;;;;5110915;28;20044;-59
2023/06/07 01:28:41;;;;;;;11.27;5.05;;;11.30;99.90;;;;;;5111696;28;20043;-59
2023/06/07 01:31:08;;;;;;;14.10;4.68;;;11.20;99.90;;;;;;5112596;28;20042;-59
2023/06/07 01:33:35;;;;;;;13.20;4.90;;;11.20;99.90;;;;;;5112587;28;20042;-59
2023/06/07 01:36:02;;;;;;;13.23;4.47;;;11.30;99.90;;;;;;5109697;28;20044;-59
2023/06/07 01:38:31;;;;;;;13.32;4.70;;;11.20;99.90;;;;;;5110082;28;20040;-59
2023/06/07 01:40:59;;;;;;;15.75;5.00;;;11.30;99.90;;;;;;5111021;28;20051;-59
2023/06/07 01:43:25;;;;;;;15.13;4.75;;;11.30;99.90;;;;;;5111301;28;20123;-59
2023/06/07 01:45:53;;;;;;;19.58;4.97;;;11.30;99.90;;;;;;5098290;28;20032;-59
2023/06/07 01:48:19;;;;;;;11.60;5.15;;;11.30;99.90;;;;;;5091799;28;20044;-59
2023/06/07 01:50:45;;;;;;;15.10;5.00;;;11.30;99.90;;;;;;5090095;28;20044;-59
2023/06/07 01:53:10;;;;;;;11.32;4.35;;;11.30;99.90;;;;;;5090547;28;20499;-59
2023/06/07 01:55:37;;;;;;;13.15;5.03;;;11.30;99.90;;;;;;5092058;28;20093;-59
2023/06/07 01:58:32;;;;;;;16.00;6.40;;;11.30;99.90;;;;;;5090343;28;20117;-58
2023/06/07 02:01:03;;;;;;;;;;;11.30;99.90;;;;;;5091277;28;20085;-59
2023/06/07 02:03:38;;;;;;;11.70;4.57;;;11.30;99.90;;;;;;5103365;28;19919;-59
2023/06/07 02:06:08;;;;;;;10.48;4.43;;;11.30;99.90;;;;;;5112332;28;20495;-59
2023/06/07 02:08:43;;;;;;;11.02;4.95;;;11.30;99.90;;;;;;5111119;28;20480;-59
2023/06/07 02:11:09;;;;;;;17.85;5.63;;;11.30;99.90;;;;;;5106329;28;20032;-60
2023/06/07 02:13:38;;;;;;;12.95;4.82;;;11.30;99.90;;;;;;5094475;28;20047;-59
2023/06/07 02:16:04;;;;;;;10.75;4.00;;;11.30;99.90;;;;;;5095953;28;20468;-59
2023/06/07 02:18:31;;;;;;;14.43;4.45;;;11.30;99.90;;;;;;5094580;28;20040;-59
2023/06/07 02:20:57;;;;;;;14.50;4.47;;;11.30;99.90;;;;;;5094364;28;20043;-59
2023/06/07 02:23:22;;;;;;;14.00;3.55;;;11.30;99.90;;;;;;5094074;28;20499;-59
2023/06/07 02:25:49;;;;;;;14.68;5.05;;;11.30;99.90;;;;;;5092989;28;20052;-59
2023/06/07 02:28:15;;;;;;;13.25;4.97;;;11.30;99.90;;;;;;5102155;28;20086;-59
2023/06/07 02:30:40;;;;;;;14.85;4.50;;;11.30;99.90;;;;;;5115825;28;20067;-59
2023/06/07 02:33:13;;;;;;;12.77;4.15;;;11.40;99.90;;;;;;5115140;28;20077;-59
2023/06/07 02:35:52;;;;;;;10.80;3.03;;;11.40;99.90;;;;;;5115163;28;20040;-59
2023/06/07 02:38:18;;;;;;;15.88;4.10;;;11.40;99.90;;;;;;5115053;27;20043;-59
2023/06/07 02:40:43;;;;;;;13.57;4.22;;;11.40;99.90;;;;;;5112334;28;20045;-59
2023/06/07 02:43:09;;;;;;;14.60;4.13;;;11.40;99.90;;;;;;5094858;28;20480;-59
2023/06/07 02:45:35;;;;;;;11.57;4.55;;;11.40;99.90;;;;;;5093742;28;20050;-59
2023/06/07 02:48:01;;;;;;;13.20;4.45;;;11.40;99.90;;;;;;5092991;28;20039;-59
2023/06/07 02:50:26;;;;;;;13.20;3.30;;;11.40;99.90;;;;;;5094734;28;20117;-59
2023/06/07 02:52:52;;;;;;;15.88;4.50;;;11.50;99.90;;;;;;5092501;28;20040;-59
2023/06/07 02:55:18;;;;;;;16.58;4.22;;;11.50;99.90;;;;;;5093801;28;20039;-59
2023/06/07 02:57:43;;;;;;;11.70;3.83;;;11.50;99.90;;;;;;5094705;28;20555;-59
2023/06/07 03:00:13;;;;;;;13.52;4.68;;;11.50;99.90;;;;;;5075687;28;20048;-59
2023/06/07 03:02:39;;;;;;;11.80;3.85;;;11.50;99.90;;;;;;5093505;28;20044;-59
2023/06/07 03:05:06;;;;;;;10.65;4.22;;;11.50;99.90;;;;;;5076789;28;20163;-59
2023/06/07 03:07:35;;;;;;;12.35;4.00;;;11.50;99.90;;;;;;5097937;28;20480;-59
2023/06/07 03:10:04;;;;;;;14.15;4.72;;;11.50;99.90;;;;;;5113853;28;20088;-59
2023/06/07 03:12:29;;;;;;;11.05;3.80;;;11.50;99.90;;;;;;5096527;28;20044;-59
2023/06/07 03:14:55;;;;;;;12.40;4.55;;;11.50;99.90;;;;;;5113918;28;20043;-59
2023/06/07 03:17:21;;;;;;;11.68;4.60;;;11.50;99.90;;;;;;5114758;28;20050;-59
2023/06/07 03:19:47;;;;;;;13.68;3.97;;;11.50;99.90;;;;;;5114608;28;20071;-59
2023/06/07 03:22:13;;;;;;;10.95;4.60;;;11.50;99.90;;;;;;5112328;28;20094;-59
2023/06/07 03:24:38;;;;;;;12.40;4.03;;;11.60;99.90;;;;;;5112214;28;20039;-59
2023/06/07 03:27:05;;;;;;;17.10;4.68;;;11.60;99.90;;;;;;5113362;28;20101;-59
2023/06/07 03:29:31;;;;;;;10.88;3.15;;;11.60;99.90;;;;;;5113797;28;20039;-59
2023/06/07 03:31:57;;;;;;;11.07;4.03;;;11.50;99.90;;;;;;5113356;28;20039;-59
2023/06/07 03:34:23;;;;;;;10.93;4.32;;;11.50;99.90;;;;;;5103077;28;20119;-59
2023/06/07 03:36:49;;;;;;;10.60;3.30;;;11.50;99.90;;;;;;5093100;28;20492;-59
2023/06/07 03:39:15;;;;;;;10.88;3.55;;;11.60;99.90;;;;;;5092643;28;20056;-59
2023/06/07 03:41:40;;;;;;;11.63;4.00;;;11.60;99.90;;;;;;5092180;28;20048;-59
2023/06/07 03:44:06;;;;;;;14.48;4.07;;;11.60;99.90;;;;;;5092456;28;20134;-59
2023/06/07 03:46:32;;;;;;;11.38;4.50;;;11.60;99.90;;;;;;5092430;28;20489;-59
2023/06/07 03:48:57;;;;;;;13.43;3.95;;;11.60;99.90;;;;;;5093266;28;20078;-59
2023/06/07 03:51:23;;;;;;;13.38;4.20;;;11.60;99.90;;;;;;5093213;28;20117;-59
2023/06/07 03:53:49;;;;;;;12.02;3.83;;;11.70;99.90;;;;;;5092249;28;20047;-59
2023/06/07 03:56:15;;;;;;;8.45;3.50;;;11.60;99.90;;;;;;5091367;28;20043;-59
2023/06/07 03:58:40;;;;;;;11.70;4.35;;;11.60;99.90;;;;;;5075374;28;20076;-59
2023/06/07 04:01:06;;;;;;;10.73;4.20;;;11.60;99.90;;;;;;5093691;28;20382;-59
2023/06/07 04:03:32;;;;;;;13.82;3.97;;;11.70;99.90;;;;;;5092525;28;20032;-59
2023/06/07 04:05:58;;;;;;;13.20;5.00;;;11.70;99.90;;;;;;5092070;28;20120;-59
2023/06/07 04:08:24;;;;;;;12.65;4.45;;;11.70;99.90;;;;;;5093292;28;20066;-59
2023/06/07 04:10:50;;;;;;;9.60;3.88;;;11.70;99.90;;;;;;5092489;28;20046;-59
2023/06/07 04:13:16;;;;;;;12.23;4.43;;;11.70;99.90;;;;;;5095506;28;20043;-59
2023/06/07 04:15:43;;;;;;;10.90;5.28;;;11.70;99.90;;;;;;5112338;28;20118;-59
2023/06/07 04:18:08;;;;;;;9.23;4.13;;;11.80;99.90;;;;;;5112748;28;20080;-59
2023/06/07 04:20:34;;;;;;;12.57;4.80;;;11.80;99.90;;;;;;5112747;28;20036;-59
2023/06/07 04:23:00;;;;;;;14.88;4.78;;;11.80;99.90;;;;;;5112221;28;20044;-59
2023/06/07 04:25:34;;;;;;;10.45;4.50;;;11.80;99.90;;;;;;5094412;28;20070;-59
2023/06/07 04:28:03;;;;;;;10.23;4.82;;;11.80;99.90;;;;;;5113379;28;20039;-59
2023/06/07 04:30:36;;;;;;;13.48;4.05;;;11.90;99.90;;;;;;5112821;28;20088;-59
2023/06/07 04:33:09;;;;;;;10.73;4.03;;;11.90;99.90;;;;;;5112971;27;20393;-59
2023/06/07 04:35:41;;;;;;;14.13;4.70;;;11.90;99.90;;;;;;5113241;28;20042;-59
2023/06/07 04:38:11;;;;;;;11.38;4.28;;;11.90;99.90;;;;;;5111914;28;20082;-59
2023/06/07 04:40:41;;;;;;;10.60;4.03;;;11.90;99.90;;;;;;5112719;28;20043;-59
2023/06/07 04:43:08;;;;;;;9.30;4.10;;;11.90;99.90;;;;;;5112074;28;20040;-59
2023/06/07 04:45:36;;;;;;;12.13;4.18;;;11.90;99.90;;;;;;5111285;28;20050;-59
2023/06/07 04:48:04;;;;;;;10.82;3.97;;;12.00;99.90;;;;;;5111839;28;20495;-59
2023/06/07 04:50:30;;;;;;;14.35;4.78;;;12.00;99.90;;;;;;5112979;28;20404;-59
2023/06/07 04:53:03;;;;;;;8.95;3.85;;;12.00;99.90;;;;;;5110861;28;20046;-59
2023/06/07 04:55:34;;;;;;;12.70;4.32;;;12.00;99.90;;;;;;5111635;28;20047;-59
2023/06/07 04:58:03;;;;;;;14.95;4.90;;;12.10;99.90;;;;;;5112777;28;20039;-59
2023/06/07 05:00:30;;;;;;;13.50;3.75;;;12.10;99.90;;;;;;5103416;28;20043;-59
2023/06/07 05:02:56;;;;;;;14.07;3.97;;;12.00;99.90;;;;;;5073877;28;20507;-59
2023/06/07 05:05:21;;;;;;;10.60;3.55;;;12.10;99.90;;;;;;5091268;28;20044;-59
2023/06/07 05:07:49;;;;;;;13.60;4.03;;;12.00;99.90;;;;;;5091329;28;20131;-59
2023/06/07 05:10:15;;;;;;;11.77;3.40;;;12.00;99.90;;;;;;5092166;28;20076;-59
2023/06/07 05:12:41;;;;;;;10.85;3.95;;;12.10;99.90;;;;;;5091777;28;20042;-59
2023/06/07 05:15:07;;;;;;;10.02;3.70;;;12.10;99.90;;;;;;5092067;28;20111;-59
2023/06/07 05:17:34;;;;;;;8.63;3.60;;;12.10;99.90;;;;;;5090896;28;20048;-59
2023/06/07 05:20:00;;;;;;;11.10;3.88;;;12.10;99.90;;;;;;5091888;28;20043;-59
2023/06/07 05:22:25;;;;;;;12.98;4.13;;;12.20;99.90;;;;;;5073343;28;20101;-59
2023/06/07 05:24:51;;;;;;;8.55;3.72;;;12.20;99.90;;;;;;5105072;28;20051;-59
2023/06/07 05:27:17;;;;;;;11.00;3.47;;;12.20;99.90;;;;;;5111655;28;20597;-59
2023/06/07 05:29:43;;;;;;;9.65;3.22;;;12.20;99.90;;;;;;5110560;28;20040;-59
2023/06/07 05:32:09;;;;;;;12.90;3.58;;;12.20;99.90;;;;;;5111299;28;20484;-59
2023/06/07 05:34:35;;;;;;;11.55;3.65;;;12.30;99.90;;;;;;5110499;28;20529;-59
2023/06/07 05:37:02;;;;;;;8.40;3.70;;;12.30;99.90;;;;;;5111166;28;20044;-59
2023/06/07 05:39:28;;;;;;;11.48;3.38;;;12.40;99.90;;;;;;5111318;28;20058;-59
2023/06/07 05:41:53;;;;;;;8.25;3.90;;;12.40;99.90;;;;;;5110215;28;20043;-59
2023/06/07 05:44:19;;;;;;;11.38;3.53;;;12.30;99.90;;;;;;5111262;28;20043;-59
2023/06/07 05:46:45;;;;;;;10.93;3.80;;;12.40;99.90;;;;;;5112283;28;20480;-59
2023/06/07 05:49:10;;;;;;;11.45;3.08;;;12.40;99.90;;;;;;5114765;28;20043;-59
2023/06/07 05:51:42;;;;;;;13.40;4.22;;;12.40;99.90;;;;;;5098682;28;20035;-59
2023/06/07 05:54:08;;;;;;;11.18;4.03;;;12.40;99.90;;;;;;5115246;28;20472;-59
2023/06/07 05:56:34;;;;;;;13.30;4.90;;;12.50;99.90;;;;;;5096744;28;20151;-59
2023/06/07 05:59:00;;;;;;;10.30;3.70;;;12.50;99.90;;;;;;5094249;28;20087;-59
2023/06/07 06:01:26;;;;;;;8.38;3.13;;;12.50;99.90;;;;;;5095767;28;20452;-59
2023/06/07 06:03:52;;;;;;;8.38;3.30;;;12.60;99.90;;;;;;5094879;28;20484;-59
2023/06/07 06:06:18;;;;;;;10.52;3.35;;;12.60;99.90;;;;;;5095418;28;20085;-59
2023/06/07 06:08:44;;;;;;;8.77;3.50;;;12.60;99.90;;;;;;5095215;28;20089;-59
2023/06/07 06:11:12;;;;;;;9.20;3.78;;;12.60;99.90;;;;;;5093739;28;20032;-59
2023/06/07 06:13:39;;;;;;;8.73;3.10;;;12.70;99.90;;;;;;5094209;28;20040;-59
2023/06/07 06:16:05;;;;;;;10.05;3.35;;;12.80;99.90;;;;;;5094021;28;20048;-59
2023/06/07 06:18:31;;;;;;;14.50;4.50;;;12.80;99.90;;;;;;5106250;28;20427;-59
2023/06/07 06:20:57;;;;;;;8.02;3.40;;;12.80;99.90;;;;;;5096600;28;20103;-59
2023/06/07 06:23:24;;;;;;;9.77;4.18;;;12.80;99.90;;;;;;5104663;28;20043;-59
2023/06/07 06:25:50;;;;;;;12.23;3.38;;;12.90;99.90;;;;;;5096220;28;20127;-59
2023/06/07 06:28:16;;;;;;;8.75;3.47;;;12.90;99.90;;;;;;5083986;28;20043;-63
2023/06/07 06:30:45;;;;;;;11.88;3.25;;;12.90;99.90;;;;;;5098959;28;20073;-62
2023/06/07 06:33:11;;;;;;;9.65;4.13;;;13.00;99.90;;;;;;5096342;28;20032;-62
2023/06/07 06:35:37;;;;;;;6.32;3.13;;;13.00;99.90;;;;;;5114490;28;20503;-60
2023/06/07 06:38:03;;;;;;;10.77;3.92;;;13.00;99.90;;;;;;5097701;28;20503;-62
2023/06/07 06:40:28;;;;;;;13.98;4.05;;;13.00;99.90;;;;;;5092251;28;20127;-61
2023/06/07 06:42:54;;;;;;;11.48;3.55;;;13.00;99.90;;;;;;5091075;28;20158;-62
2023/06/07 06:45:20;;;;;;;13.48;3.47;;;13.00;99.90;;;;;;5090484;28;20405;-61
2023/06/07 06:47:46;;;;;;;14.02;4.72;;;13.00;99.90;;;;;;5110864;28;20047;-62
2023/06/07 06:50:13;;;;;;;11.73;3.95;;;13.10;99.90;;;;;;5110789;28;20391;-60
2023/06/07 06:52:40;;;;;;;12.27;4.28;;;13.10;99.90;;;;;;5110174;28;20082;-60
2023/06/07 06:55:06;;;;;;;8.32;3.40;;;13.20;99.90;;;;;;5112682;28;20039;-61
2023/06/07 06:57:32;;;;;;;12.63;4.22;;;13.20;99.90;;;;;;5112140;28;20073;-61
2023/06/07 06:59:59;;;;;;;8.43;3.35;;;13.20;99.90;;;;;;5110457;28;20396;-61
2023/06/07 07:02:25;;;;;;;7.85;3.22;;;13.20;99.90;;;;;;5111869;28;20047;-61
2023/06/07 07:04:51;;;;;;;11.45;3.72;;;13.20;99.90;;;;;;5107142;28;21216;-61
2023/06/07 07:07:17;;;;;;;11.15;3.38;;;13.10;99.90;;;;;;5113038;27;20047;-61
2023/06/07 07:09:42;;;;;;;10.05;4.60;;;13.10;99.90;;;;;;5111053;27;20051;-61
2023/06/07 07:12:08;;;;;;;8.77;3.83;;;13.20;99.90;;;;;;5106097;28;20507;-61
2023/06/07 07:14:34;;;;;;;11.65;4.00;;;13.20;99.90;;;;;;5110592;28;20499;-61
2023/06/07 07:17:00;;;;;;;14.05;3.58;;;13.20;99.90;;;;;;5110765;28;20573;-61
2023/06/07 07:19:25;;;;;;;10.80;3.80;;;13.30;99.90;;;;;;5110041;28;20051;-61
2023/06/07 07:21:51;;;;;;;9.07;3.55;;;13.40;99.90;;;;;;5105544;28;20083;-62
2023/06/07 07:24:17;;;;;;;10.48;4.00;;;13.40;99.90;;;;;;5099633;28;20212;-61
2023/06/07 07:26:43;;;;;;;10.80;3.53;;;13.50;99.90;;;;;;5104726;28;20134;-61
2023/06/07 07:29:10;;;;;;;11.20;3.92;;;13.60;99.90;;;;;;5091190;28;20603;-61
2023/06/07 07:31:35;;;;;;;10.65;3.83;;;13.60;99.90;;;;;;5096645;28;20051;-61
2023/06/07 07:34:02;;;;;;;15.02;4.68;;;13.70;99.90;;;;;;5110178;28;20043;-61
2023/06/07 07:36:29;;;;;;;6.75;3.30;;;13.80;99.90;;;;;;5109451;28;20051;-61
2023/06/07 07:38:57;;;;;;;9.80;3.97;;;13.80;99.90;;;;;;5105704;28;20489;-61
2023/06/07 07:41:23;;;;;;;10.63;3.90;;;13.80;99.90;;;;;;5098356;28;20063;-61
2023/06/07 07:43:48;;;;;;;11.05;5.20;;;13.80;99.90;;;;;;5072542;28;20047;-61
2023/06/07 07:46:14;;;;;;;10.60;4.20;;;13.80;99.90;;;;;;5102521;28;20629;-61
2023/06/07 07:48:40;;;;;;;10.98;3.88;;;13.80;99.90;;;;;;5108677;28;20043;-61
2023/06/07 07:51:06;;;;;;;11.45;3.65;;;13.90;99.90;;;;;;5091009;28;20043;-61
2023/06/07 07:53:33;;;;;;;10.52;4.30;;;13.90;99.90;;;;;;5078229;28;20047;-61
2023/06/07 07:55:59;;;;;;;11.02;4.18;;;13.90;99.90;;;;;;5123220;27;20047;-61
2023/06/07 07:58:27;;;;;;;10.20;3.58;;;13.90;99.90;;;;;;5102208;28;20846;-60
2023/06/07 08:00:53;;;;;;;7.43;3.38;;;13.90;99.90;;;;;;5096352;28;20031;-61
2023/06/07 08:03:18;;;;;;;7.43;3.35;;;14.00;99.90;;;;;;5099993;28;20035;-60
2023/06/07 08:05:44;;;;;;;13.93;4.43;;;14.10;99.90;;;;;;5094403;28;20039;-61
2023/06/07 08:08:10;;;;;;;8.15;3.47;;;14.20;99.90;;;;;;5092583;28;20521;-61
2023/06/07 08:10:36;;;;;;;8.52;3.65;;;14.20;99.90;;;;;;5108843;28;20058;-61
2023/06/07 08:13:02;;;;;;;7.10;3.83;;;14.20;99.90;;;;;;5111118;28;20422;-60
2023/06/07 08:15:27;;;;;;;13.98;5.47;;;14.30;99.90;;;;;;5103095;28;20089;-61
2023/06/07 08:17:53;;;;;;;11.77;4.03;;;14.30;99.90;;;;;;5110299;28;20442;-61
2023/06/07 08:20:21;;;;;;;9.63;4.03;;;14.30;99.90;;;;;;5110822;28;20458;-62
2023/06/07 08:22:50;;;;;;;10.38;4.28;;;14.30;99.90;;;;;;5095690;28;20035;-62
2023/06/07 08:25:16;;;;;;;10.13;3.83;;;14.30;99.90;;;;;;5108924;28;20453;-62
2023/06/07 08:27:42;;;;;;;7.35;2.97;;;14.20;99.90;;;;;;5106336;28;20087;-62
2023/06/07 08:30:09;;;;;;;8.30;3.53;;;14.30;99.90;;;;;;5110802;28;20074;-61
2023/06/07 08:32:34;;;;;;;9.15;3.92;;;14.40;99.90;;;;;;5110414;28;20071;-62
2023/06/07 08:35:00;;;;;;;9.48;4.00;;;14.60;99.90;;;;;;5109345;28;20039;-62
2023/06/07 08:37:26;;;;;;;9.93;3.60;;;14.90;99.90;;;;;;5109510;28;20039;-62
2023/06/07 08:39:52;;;;;;;12.30;4.18;;;15.20;99.90;;;;;;5108225;28;20043;-61
2023/06/07 08:42:17;;;;;;;8.32;3.90;;;15.40;99.90;;;;;;5109958;28;20061;-60
2023/06/07 08:44:43;;;;;;;18.15;5.15;;;15.40;99.90;;;;;;5072241;28;20044;-60
2023/06/07 08:47:13;;;;;;;9.95;5.15;;;15.40;99.90;;;;;;5103885;28;20043;-60
2023/06/07 08:49:40;;;;;;;12.05;6.03;;;15.40;99.90;;;;;;5106012;28;20047;-60
2023/06/07 08:52:08;;;;;;;11.98;5.45;;;15.40;99.90;;;;;;5096282;28;20051;-59
2023/06/07 08:54:40;;;;;;;15.90;5.45;;;15.30;99.90;;;;;;5091487;28;20036;-61
2023/06/07 08:57:07;;;;;;;14.00;5.05;;;15.40;99.90;;;;;;5093796;28;20040;-62
2023/06/07 08:59:34;;;;;;;11.55;4.75;;;15.50;99.90;;;;;;5102977;28;20065;-62
2023/06/07 09:02:01;;;;;;;7.60;4.00;;;15.70;99.90;;;;;;5091384;28;20381;-61
2023/06/07 09:04:27;;;;;;;9.95;5.70;;;16.00;99.90;;;;;;5094671;28;20043;-62
2023/06/07 09:06:53;;;;;;;10.05;5.15;;;16.00;99.90;;;;;;5108552;28;20043;-61
2023/06/07 09:09:19;;;;;;;10.20;4.68;;;15.90;99.90;;;;;;5107495;28;20040;-62
2023/06/07 09:11:52;;;;;;;10.45;4.50;;;15.90;99.90;;;;;;5096149;28;20495;-65
2023/06/07 09:14:18;;;;;;;9.73;4.30;;;16.00;99.90;;;;;;5098373;28;20036;-62
2023/06/07 09:16:58;;;;;;;13.63;4.72;;;16.10;99.90;;;;;;5092826;28;20396;-68
2023/06/07 09:19:37;;;;;;;13.30;5.00;;;16.30;99.90;;;;;;5111279;28;20044;-65
2023/06/07 09:22:04;;;;;;;11.45;4.90;;;16.20;99.90;;;;;;5112837;28;20088;-61
2023/06/07 09:24:30;;;;;;;9.50;4.45;;;16.30;99.90;;;;;;5109315;28;20047;-66
2023/06/07 09:26:56;;;;;;;11.82;4.65;;;16.30;99.90;;;;;;5111862;28;20048;-63
2023/06/07 09:29:22;;;;;;;11.30;5.00;;;16.30;99.90;;;;;;5102290;28;20121;-63
2023/06/07 09:31:48;;;;;;;13.10;5.07;;;16.20;99.90;;;;;;5092834;28;20078;-60
2023/06/07 09:34:25;;;;;;;12.55;5.95;;;16.20;99.90;;;;;;5096634;28;20065;-61
2023/06/07 09:36:57;;;;;;;12.27;4.80;;;16.30;99.90;;;;;;5078107;28;20050;-60
2023/06/07 09:39:26;;;;;;;12.18;6.00;;;16.40;99.90;;;;;;5095615;28;20380;-61
2023/06/07 09:41:56;;;;;;;15.32;6.05;;;16.40;99.90;;;;;;5104554;28;20040;-61
2023/06/07 09:44:26;;;;;;;11.82;5.78;;;16.40;99.90;;;;;;5091298;28;20047;-61
2023/06/07 09:46:53;;;;;;;16.02;5.28;;;16.40;99.90;;;;;;5091315;28;20204;-61
2023/06/07 09:49:34;;;;;;;11.55;5.43;;;16.40;99.90;;;;;;5099145;28;20061;-61
2023/06/07 09:52:01;;;;;;;10.02;4.65;;;16.50;99.90;;;;;;5109266;28;20480;-61
2023/06/07 09:54:40;;;;;;;11.63;5.82;;;16.50;99.90;;;;;;5103486;28;20491;-61
2023/06/07 09:57:10;;;;;;;16.63;5.47;;;16.50;99.90;;;;;;5077134;28;20469;-61
2023/06/07 09:59:37;;;;;;;10.50;5.20;;;16.60;99.90;;;;;;5091119;28;20488;-60
2023/06/07 10:02:22;;;;;;;9.30;4.80;;;16.70;99.90;;;;;;5092469;28;20392;-61
2023/06/07 10:04:47;;;;;;;10.85;5.40;;;16.80;99.90;;;;;;5089111;28;20483;-61
2023/06/07 10:07:14;;;;;;;15.27;6.72;;;16.80;99.90;;;;;;5090320;28;20087;-61
2023/06/07 10:09:41;;;;;;;14.18;5.70;;;16.80;99.90;;;;;;5088334;28;20058;-61
2023/06/07 10:12:10;;;;;;;9.88;4.88;;;16.70;99.90;;;;;;5087951;28;20114;-61
2023/06/07 10:14:37;;;;;;;10.85;5.28;;;16.60;99.90;;;;;;5092444;28;20753;-60
2023/06/07 10:17:05;;;;;;;16.08;5.55;;;16.60;99.90;;;;;;5103125;28;20381;-60
2023/06/07 10:19:36;;;;;;;14.32;7.05;;;16.60;99.90;;;;;;5097948;28;20469;-61
2023/06/07 10:22:08;;;;;;;11.68;5.80;;;16.70;99.90;;;;;;5089783;28;20396;-61
2023/06/07 10:24:45;;;;;;;12.60;6.18;;;16.90;99.90;;;;;;5092492;28;20051;-60
2023/06/07 10:27:13;;;;;;;12.65;5.93;;;16.90;99.90;;;;;;5087982;28;20052;-60
2023/06/07 10:29:50;;;;;;;13.02;6.20;;;16.90;99.90;;;;;;5083516;28;20521;-59
2023/06/07 10:32:25;;;;;;;10.30;4.95;;;16.90;99.90;;;;;;5088053;28;20126;-60
2023/06/07 10:34:54;;;;;;;10.57;5.40;;;17.00;99.90;;;;;;5091938;28;20154;-59
2023/06/07 10:37:20;;;;;;;11.15;6.00;;;16.90;99.90;;;;;;5090166;28;20054;-61
2023/06/07 10:39:46;;;;;;;11.52;6.43;;;17.00;99.90;;;;;;5091667;28;20142;-61
2023/06/07 10:42:13;;;;;;;10.80;5.25;;;17.00;99.90;;;;;;5079722;28;20559;-62
2023/06/07 10:44:39;;;;;;;11.13;5.68;;;17.00;99.90;;;;;;5100756;28;20040;-60
2023/06/07 10:47:25;;;;;;;13.07;6.25;;;17.00;99.90;;;;;;5093837;28;20139;-60
2023/06/07 10:49:51;;;;;;;10.15;5.43;;;16.90;99.90;;;;;;5094502;28;20112;-60
2023/06/07 10:52:18;;;;;;;15.75;5.72;;;17.00;99.90;;;;;;5076315;28;20122;-62
2023/06/07 10:54:45;;;;;;;11.50;4.97;;;17.00;99.90;;;;;;5105792;28;20600;-61
2023/06/07 10:57:11;;;;;;;10.15;6.72;;;17.10;99.90;;;;;;5108727;28;20109;-61
2023/06/07 10:59:38;;;;;;;15.07;6.22;;;17.20;99.90;;;;;;5094150;28;20444;-61
2023/06/07 11:02:30;;;;;;;10.40;5.88;;;17.30;99.90;;;;;;5099953;28;20090;-62
2023/06/07 11:05:00;;;;;;;12.20;5.95;;;17.40;99.90;;;;;;5109857;28;20051;-61
2023/06/07 11:07:31;;;;;;;11.52;5.40;;;17.40;99.90;;;;;;5113798;28;20085;-61
2023/06/07 11:10:22;;;;;;;9.38;5.78;;;17.40;99.90;;;;;;5113023;28;20039;-60
2023/06/07 11:12:54;;;;;;;11.80;5.40;;;17.50;99.90;;;;;;5101652;28;20485;-60
2023/06/07 11:15:30;;;;;;;10.48;5.50;;;17.40;99.90;;;;;;5112907;28;20027;-61
2023/06/07 11:17:57;;;;;;;10.70;4.70;;;17.40;99.90;;;;;;5111293;28;20054;-61
2023/06/07 11:20:43;;;;;;;10.65;4.88;;;17.50;99.90;;;;;;5112092;27;20048;-61
2023/06/07 11:23:25;;;;;;;10.35;5.20;;;17.60;99.90;;;;;;5113805;28;20381;-61
2023/06/07 11:26:07;;;;;;;15.63;5.40;;;17.60;99.90;;;;;;5113011;28;20063;-62
2023/06/07 11:28:34;;;;;;;12.02;6.55;;;17.70;99.90;;;;;;5112837;28;20083;-62
2023/06/07 11:31:01;;;;;;;9.82;5.25;;;17.50;99.90;;;;;;5113271;28;20043;-62
2023/06/07 11:33:27;;;;;;;10.77;5.53;;;17.50;99.90;;;;;;5113627;28;20042;-62
2023/06/07 11:35:55;;;;;;;13.52;5.57;;;17.60;99.90;;;;;;5114218;28;20027;-62
2023/06/07 11:38:22;;;;;;;10.35;5.15;;;17.60;99.90;;;;;;5096240;28;20062;-62
2023/06/07 11:40:49;;;;;;;8.75;4.85;;;17.80;99.90;;;;;;5113760;28;20051;-62
2023/06/07 11:43:19;;;;;;;11.38;5.00;;;18.00;99.90;;;;;;5114112;28;20097;-62
2023/06/07 11:45:45;;;;;;;9.68;4.40;;;17.90;99.90;;;;;;5111845;28;20051;-62
2023/06/07 11:48:11;;;;;;;9.32;5.38;;;17.80;99.90;;;;;;5113424;28;20051;-62
2023/06/07 11:50:38;;;;;;;11.63;5.20;;;17.90;99.90;;;;;;5114309;28;20032;-61
2023/06/07 11:53:05;;;;;;;12.10;5.15;;;17.90;99.90;;;;;;5114005;28;20488;-62
2023/06/07 11:55:32;;;;;;;14.60;5.10;;;17.90;99.90;;;;;;5112558;28;20039;-61
2023/06/07 11:58:01;;;;;;;13.85;5.60;;;18.00;99.90;;;;;;5112853;28;20559;-62
2023/06/07 12:00:30;;;;;;;9.18;4.68;;;18.00;99.90;;;;;;5095401;28;20084;-62
2023/06/07 12:02:57;;;;;;;11.20;5.10;;;18.00;99.90;;;;;;5111845;28;20048;-61
2023/06/07 12:05:30;;;;;;;9.30;5.03;;;18.00;99.90;;;;;;5113926;28;20075;-61
2023/06/07 12:08:15;;;;;;;9.93;5.43;;;18.10;99.90;;;;;;5113637;28;20039;-62
2023/06/07 12:10:41;;;;;;;11.95;5.55;;;18.10;99.90;;;;;;5112015;28;20051;-62
2023/06/07 12:13:14;;;;;;;10.77;4.47;;;18.30;99.90;;;;;;5112625;28;20035;-61
2023/06/07 12:15:56;;;;;;;13.13;5.85;;;18.40;99.90;;;;;;5111627;28;20047;-62
2023/06/07 12:18:29;;;;;;;13.05;4.78;;;18.40;99.90;;;;;;5113573;28;20043;-62
2023/06/07 12:21:02;;;;;;;11.07;4.53;;;18.40;99.90;;;;;;5112228;28;20035;-62
2023/06/07 12:23:28;;;;;;;13.85;4.85;;;18.40;99.90;;;;;;5111728;28;20044;-62
2023/06/07 12:26:10;;;;;;;9.75;4.70;;;18.30;99.90;;;;;;5111910;28;20052;-62
2023/06/07 12:28:37;;;;;;;12.25;4.50;;;18.20;99.90;;;;;;5113598;28;20048;-62
2023/06/07 12:31:02;;;;;;;15.25;5.35;;;18.10;99.90;;;;;;5111741;28;20043;-62
2023/06/07 12:33:31;;;;;;;14.93;5.68;;;18.10;99.90;;;;;;5113157;28;20458;-61
2023/06/07 12:35:59;;;;;;;12.23;4.88;;;18.10;99.90;;;;;;5111645;28;20059;-61
2023/06/07 12:38:25;;;;;;;9.02;4.18;;;18.10;99.90;;;;;;5112860;28;20122;-61
2023/06/07 12:40:51;;;;;;;11.48;4.88;;;18.10;99.90;;;;;;5111992;28;20066;-63
2023/06/07 12:43:17;;;;;;;11.73;5.10;;;18.20;99.90;;;;;;5095035;28;20468;-63
2023/06/07 12:45:43;;;;;;;9.60;4.55;;;18.30;99.90;;;;;;5111050;28;20047;-61
2023/06/07 12:48:09;;;;;;;10.27;5.40;;;18.40;99.90;;;;;;5111505;28;20401;-63
2023/06/07 12:50:35;;;;;;;11.55;5.43;;;18.30;99.90;;;;;;5111620;28;20055;-61
2023/06/07 12:53:01;;;;;;;10.57;4.85;;;18.50;99.90;;;;;;5112970;28;20109;-62
2023/06/07 12:55:27;;;;;;;10.45;4.68;;;18.60;99.90;;;;;;5111623;28;20380;-62
2023/06/07 12:57:52;;;;;;;7.45;4.50;;;18.60;99.90;;;;;;5111064;28;20044;-62